sensor_id;sensor_type;location;lat;lon;timestamp;pressure;altitude;pressure_sealevel;temperature;humidity
37852;BME280;23691;52.486;4.650;2022-09-02T00:03:37;101891.91;;;18.89;55.66
37852;BME280;23691;52.486;4.650;2022-09-02T00:06:03;101894.81;;;18.87;55.54
37852;BME280;23691;52.486;4.650;2022-09-02T00:08:29;101887.31;;;18.90;55.41
37852;BME280;23691;52.486;4.650;2022-09-02T00:10:59;101885.66;;;18.88;55.37
37852;BME280;23691;52.486;4.650;2022-09-02T00:13:30;101883.97;;;18.87;55.52
37852;BME280;23691;52.486;4.650;2022-09-02T00:15:55;101880.63;;;18.85;55.22
37852;BME280;23691;52.486;4.650;2022-09-02T00:18:21;101875.38;;;18.84;55.20
37852;BME280;23691;52.486;4.650;2022-09-02T00:20:49;101878.69;;;18.79;55.55
37852;BME280;23691;52.486;4.650;2022-09-02T00:23:15;101875.97;;;18.79;55.52
37852;BME280;23691;52.486;4.650;2022-09-02T00:25:41;101877.19;;;18.77;55.60
37852;BME280;23691;52.486;4.650;2022-09-02T00:28:09;101876.38;;;18.76;55.20
37852;BME280;23691;52.486;4.650;2022-09-02T00:30:35;101880.06;;;18.75;55.48
37852;BME280;23691;52.486;4.650;2022-09-02T00:33:01;101885.47;;;18.75;55.16
37852;BME280;23691;52.486;4.650;2022-09-02T00:35:26;101875.03;;;18.72;55.26
37852;BME280;23691;52.486;4.650;2022-09-02T00:37:52;101875.25;;;18.71;55.13
37852;BME280;23691;52.486;4.650;2022-09-02T00:40:18;101876.47;;;18.68;55.16
37852;BME280;23691;52.486;4.650;2022-09-02T00:42:44;101868.53;;;18.66;55.35
37852;BME280;23691;52.486;4.650;2022-09-02T00:45:10;101871.41;;;18.65;55.47
37852;BME280;23691;52.486;4.650;2022-09-02T00:47:36;101859.91;;;18.63;55.78
37852;BME280;23691;52.486;4.650;2022-09-02T00:50:05;101859.28;;;18.61;55.77
37852;BME280;23691;52.486;4.650;2022-09-02T00:52:41;101859.66;;;18.58;55.80
37852;BME280;23691;52.486;4.650;2022-09-02T00:55:14;101859.22;;;18.54;55.68
37852;BME280;23691;52.486;4.650;2022-09-02T00:57:43;101852.72;;;18.49;55.77
37852;BME280;23691;52.486;4.650;2022-09-02T01:02:38;101852.44;;;18.43;55.68
37852;BME280;23691;52.486;4.650;2022-09-02T01:05:07;101850.56;;;18.44;55.63
37852;BME280;23691;52.486;4.650;2022-09-02T01:07:34;101841.78;;;18.42;55.59
37852;BME280;23691;52.486;4.650;2022-09-02T01:10:04;101838.44;;;18.40;55.62
37852;BME280;23691;52.486;4.650;2022-09-02T01:12:30;101836.94;;;18.37;55.66
37852;BME280;23691;52.486;4.650;2022-09-02T01:14:56;101835.00;;;18.31;55.89
37852;BME280;23691;52.486;4.650;2022-09-02T01:17:22;101832.50;;;18.30;55.99
37852;BME280;23691;52.486;4.650;2022-09-02T01:19:54;101838.66;;;18.23;55.92
37852;BME280;23691;52.486;4.650;2022-09-02T01:22:23;101838.03;;;18.21;56.03
37852;BME280;23691;52.486;4.650;2022-09-02T01:24:50;101841.56;;;18.22;56.08
37852;BME280;23691;52.486;4.650;2022-09-02T01:27:18;101834.00;;;18.17;56.01
37852;BME280;23691;52.486;4.650;2022-09-02T01:29:48;101831.69;;;18.14;56.09
37852;BME280;23691;52.486;4.650;2022-09-02T01:32:14;101827.75;;;18.17;56.22
37852;BME280;23691;52.486;4.650;2022-09-02T01:34:40;101825.72;;;18.19;56.04
37852;BME280;23691;52.486;4.650;2022-09-02T01:37:05;101821.31;;;18.18;56.12
37852;BME280;23691;52.486;4.650;2022-09-02T01:39:31;101821.53;;;18.16;56.30
37852;BME280;23691;52.486;4.650;2022-09-02T01:41:56;101823.34;;;18.16;56.41
37852;BME280;23691;52.486;4.650;2022-09-02T01:44:22;101822.72;;;18.14;56.40
37852;BME280;23691;52.486;4.650;2022-09-02T01:46:51;101818.50;;;18.11;56.22
37852;BME280;23691;52.486;4.650;2022-09-02T01:49:17;101816.00;;;18.10;56.22
37852;BME280;23691;52.486;4.650;2022-09-02T01:51:43;101813.69;;;18.07;56.60
37852;BME280;23691;52.486;4.650;2022-09-02T01:54:08;101816.59;;;18.05;56.79
37852;BME280;23691;52.486;4.650;2022-09-02T01:56:33;101817.81;;;18.02;56.68
37852;BME280;23691;52.486;4.650;2022-09-02T01:58:59;101820.69;;;18.01;56.79
37852;BME280;23691;52.486;4.650;2022-09-02T02:01:26;101823.78;;;17.98;56.78
37852;BME280;23691;52.486;4.650;2022-09-02T02:03:52;101815.84;;;17.96;56.58
37852;BME280;23691;52.486;4.650;2022-09-02T02:06:18;101815.41;;;17.93;56.80
37852;BME280;23691;52.486;4.650;2022-09-02T02:08:43;101816.63;;;17.90;56.65
37852;BME280;23691;52.486;4.650;2022-09-02T02:11:09;101820.53;;;17.88;56.81
37852;BME280;23691;52.486;4.650;2022-09-02T02:13:35;101818.84;;;17.87;56.75
37852;BME280;23691;52.486;4.650;2022-09-02T02:16:02;101810.66;;;17.80;56.49
37852;BME280;23691;52.486;4.650;2022-09-02T02:18:27;101809.97;;;17.78;56.50
37852;BME280;23691;52.486;4.650;2022-09-02T02:20:54;101808.09;;;17.78;56.58
37852;BME280;23691;52.486;4.650;2022-09-02T02:23:19;101801.84;;;17.78;56.12
37852;BME280;23691;52.486;4.650;2022-09-02T02:25:45;101808.28;;;17.77;56.01
37852;BME280;23691;52.486;4.650;2022-09-02T02:28:11;101807.16;;;17.71;55.97
37852;BME280;23691;52.486;4.650;2022-09-02T02:30:36;101808.00;;;17.72;55.79
37852;BME280;23691;52.486;4.650;2022-09-02T02:33:01;101805.50;;;17.70;55.87
37852;BME280;23691;52.486;4.650;2022-09-02T02:35:27;101801.97;;;17.70;55.84
37852;BME280;23691;52.486;4.650;2022-09-02T02:37:53;101795.06;;;17.67;55.55
37852;BME280;23691;52.486;4.650;2022-09-02T02:40:20;101799.63;;;17.67;55.42
37852;BME280;23691;52.486;4.650;2022-09-02T02:42:48;101795.25;;;17.66;55.35
37852;BME280;23691;52.486;4.650;2022-09-02T02:45:14;101797.28;;;17.64;55.66
37852;BME280;23691;52.486;4.650;2022-09-02T02:47:41;101795.81;;;17.61;55.48
37852;BME280;23691;52.486;4.650;2022-09-02T02:50:12;101797.00;;;17.58;55.35
37852;BME280;23691;52.486;4.650;2022-09-02T02:52:39;101792.81;;;17.56;55.67
37852;BME280;23691;52.486;4.650;2022-09-02T02:55:06;101796.75;;;17.53;55.56
37852;BME280;23691;52.486;4.650;2022-09-02T02:57:33;101793.19;;;17.53;55.82
37852;BME280;23691;52.486;4.650;2022-09-02T03:02:36;101784.44;;;17.51;55.68
37852;BME280;23691;52.486;4.650;2022-09-02T03:05:03;101780.03;;;17.50;55.69
37852;BME280;23691;52.486;4.650;2022-09-02T03:07:28;101783.31;;;17.45;56.23
37852;BME280;23691;52.486;4.650;2022-09-02T03:09:54;101779.31;;;17.41;56.15
37852;BME280;23691;52.486;4.650;2022-09-02T03:12:19;101779.03;;;17.36;56.34
37852;BME280;23691;52.486;4.650;2022-09-02T03:14:45;101788.53;;;17.32;56.57
37852;BME280;23691;52.486;4.650;2022-09-02T03:17:10;101782.94;;;17.33;56.29
37852;BME280;23691;52.486;4.650;2022-09-02T03:19:35;101781.06;;;17.34;56.38
37852;BME280;23691;52.486;4.650;2022-09-02T03:22:03;101780.25;;;17.33;56.58
37852;BME280;23691;52.486;4.650;2022-09-02T03:24:29;101779.41;;;17.33;56.68
37852;BME280;23691;52.486;4.650;2022-09-02T03:26:55;101769.97;;;17.29;56.46
37852;BME280;23691;52.486;4.650;2022-09-02T03:29:20;101775.94;;;17.24;56.47
37852;BME280;23691;52.486;4.650;2022-09-02T03:31:45;101768.88;;;17.23;56.60
37852;BME280;23691;52.486;4.650;2022-09-02T03:34:11;101769.22;;;17.20;56.80
37852;BME280;23691;52.486;4.650;2022-09-02T03:36:38;101770.63;;;17.16;56.54
37852;BME280;23691;52.486;4.650;2022-09-02T03:39:05;101770.13;;;17.12;56.96
37852;BME280;23691;52.486;4.650;2022-09-02T03:41:30;101765.94;;;17.10;56.82
37852;BME280;23691;52.486;4.650;2022-09-02T03:43:56;101763.25;;;17.10;56.75
37852;BME280;23691;52.486;4.650;2022-09-02T03:46:22;101760.38;;;17.11;56.62
37852;BME280;23691;52.486;4.650;2022-09-02T03:48:47;101764.94;;;17.11;56.49
37852;BME280;23691;52.486;4.650;2022-09-02T03:51:15;101764.06;;;17.10;56.55
37852;BME280;23691;52.486;4.650;2022-09-02T03:53:41;101758.22;;;17.07;56.75
37852;BME280;23691;52.486;4.650;2022-09-02T03:56:08;101750.94;;;17.07;56.40
37852;BME280;23691;52.486;4.650;2022-09-02T03:58:36;101750.66;;;17.02;56.65
37852;BME280;23691;52.486;4.650;2022-09-02T04:01:03;101753.19;;;17.04;56.74
37852;BME280;23691;52.486;4.650;2022-09-02T04:03:28;101756.25;;;17.01;56.53
37852;BME280;23691;52.486;4.650;2022-09-02T04:05:54;101747.66;;;16.97;56.52
37852;BME280;23691;52.486;4.650;2022-09-02T04:08:19;101747.66;;;16.97;56.49
37852;BME280;23691;52.486;4.650;2022-09-02T04:10:45;101747.84;;;16.95;56.22
37852;BME280;23691;52.486;4.650;2022-09-02T04:13:10;101752.41;;;16.95;56.35
37852;BME280;23691;52.486;4.650;2022-09-02T04:15:40;101743.63;;;16.93;56.28
37852;BME280;23691;52.486;4.650;2022-09-02T04:18:08;101742.16;;;16.90;56.51
37852;BME280;23691;52.486;4.650;2022-09-02T04:20:36;101743.00;;;16.91;56.61
37852;BME280;23691;52.486;4.650;2022-09-02T04:23:02;101742.53;;;16.87;56.65
37852;BME280;23691;52.486;4.650;2022-09-02T04:25:28;101739.16;;;16.85;56.21
37852;BME280;23691;52.486;4.650;2022-09-02T04:27:54;101741.88;;;16.85;56.46
37852;BME280;23691;52.486;4.650;2022-09-02T04:30:19;101734.59;;;16.86;56.62
37852;BME280;23691;52.486;4.650;2022-09-02T04:32:45;101732.53;;;16.88;56.26
37852;BME280;23691;52.486;4.650;2022-09-02T04:35:10;101730.72;;;16.88;56.20
37852;BME280;23691;52.486;4.650;2022-09-02T04:37:36;101734.41;;;16.87;56.22
37852;BME280;23691;52.486;4.650;2022-09-02T04:40:02;101720.25;;;16.85;56.07
37852;BME280;23691;52.486;4.650;2022-09-02T04:42:27;101722.28;;;16.83;56.13
37852;BME280;23691;52.486;4.650;2022-09-02T04:44:53;101725.00;;;16.83;56.36
37852;BME280;23691;52.486;4.650;2022-09-02T04:47:20;101730.88;;;16.87;56.05
37852;BME280;23691;52.486;4.650;2022-09-02T04:49:46;101722.13;;;16.85;56.13
37852;BME280;23691;52.486;4.650;2022-09-02T04:52:11;101728.72;;;16.82;56.37
37852;BME280;23691;52.486;4.650;2022-09-02T04:54:38;101725.84;;;16.84;56.46
37852;BME280;23691;52.486;4.650;2022-09-02T04:57:03;101725.47;;;16.87;56.22
37852;BME280;23691;52.486;4.650;2022-09-02T04:59:29;101721.75;;;16.88;56.08
37852;BME280;23691;52.486;4.650;2022-09-02T05:01:54;101728.00;;;16.88;56.43
37852;BME280;23691;52.486;4.650;2022-09-02T05:04:20;101726.31;;;16.87;56.36
37852;BME280;23691;52.486;4.650;2022-09-02T05:06:45;101724.66;;;16.86;55.97
37852;BME280;23691;52.486;4.650;2022-09-02T05:09:11;101715.50;;;16.87;56.22
37852;BME280;23691;52.486;4.650;2022-09-02T05:11:37;101723.59;;;16.87;56.28
37852;BME280;23691;52.486;4.650;2022-09-02T05:14:04;101724.44;;;16.88;56.37
37852;BME280;23691;52.486;4.650;2022-09-02T05:16:36;101723.06;;;16.92;56.33
37852;BME280;23691;52.486;4.650;2022-09-02T05:19:04;101722.22;;;16.91;56.21
37852;BME280;23691;52.486;4.650;2022-09-02T05:21:30;101729.50;;;16.91;56.15
37852;BME280;23691;52.486;4.650;2022-09-02T05:23:56;101725.38;;;16.95;56.07
37852;BME280;23691;52.486;4.650;2022-09-02T05:26:22;101726.88;;;16.98;56.00
37852;BME280;23691;52.486;4.650;2022-09-02T05:28:48;101727.38;;;17.01;56.18
37852;BME280;23691;52.486;4.650;2022-09-02T05:31:16;101720.75;;;17.04;55.86
37852;BME280;23691;52.486;4.650;2022-09-02T05:33:42;101729.50;;;17.06;55.77
37852;BME280;23691;52.486;4.650;2022-09-02T05:36:10;101723.91;;;17.07;56.13
37852;BME280;23691;52.486;4.650;2022-09-02T05:38:38;101724.38;;;17.11;56.18
37852;BME280;23691;52.486;4.650;2022-09-02T05:41:12;101724.00;;;17.14;56.15
37852;BME280;23691;52.486;4.650;2022-09-02T05:43:39;101723.81;;;17.15;56.09
37852;BME280;23691;52.486;4.650;2022-09-02T05:46:07;101722.78;;;17.16;55.92
37852;BME280;23691;52.486;4.650;2022-09-02T05:48:34;101725.66;;;17.15;55.73
37852;BME280;23691;52.486;4.650;2022-09-02T05:51:18;101721.31;;;17.14;55.92
37852;BME280;23691;52.486;4.650;2022-09-02T05:53:43;101715.72;;;17.15;55.87
37852;BME280;23691;52.486;4.650;2022-09-02T05:56:09;101716.06;;;17.12;55.94
37852;BME280;23691;52.486;4.650;2022-09-02T05:58:34;101717.47;;;17.23;55.63
37852;BME280;23691;52.486;4.650;2022-09-02T06:01:06;101711.69;;;17.26;55.64
37852;BME280;23691;52.486;4.650;2022-09-02T06:03:32;101718.22;;;17.32;55.14
37852;BME280;23691;52.486;4.650;2022-09-02T06:05:58;101712.50;;;17.42;54.85
37852;BME280;23691;52.486;4.650;2022-09-02T06:08:24;101716.31;;;17.47;55.11
37852;BME280;23691;52.486;4.650;2022-09-02T06:10:49;101712.41;;;17.50;54.98
37852;BME280;23691;52.486;4.650;2022-09-02T06:13:15;101708.28;;;17.54;54.97
37852;BME280;23691;52.486;4.650;2022-09-02T06:15:42;101707.06;;;17.56;54.38
37852;BME280;23691;52.486;4.650;2022-09-02T06:18:10;101713.00;;;17.67;54.63
37852;BME280;23691;52.486;4.650;2022-09-02T06:20:43;101710.56;;;17.72;54.41
37852;BME280;23691;52.486;4.650;2022-09-02T06:23:09;101707.50;;;17.75;54.36
37852;BME280;23691;52.486;4.650;2022-09-02T06:25:36;101709.66;;;17.79;54.28
37852;BME280;23691;52.486;4.650;2022-09-02T06:28:02;101713.09;;;17.88;53.91
37852;BME280;23691;52.486;4.650;2022-09-02T06:30:27;101707.38;;;17.98;53.75
37852;BME280;23691;52.486;4.650;2022-09-02T06:32:53;101707.81;;;18.01;53.73
37852;BME280;23691;52.486;4.650;2022-09-02T06:35:18;101705.00;;;18.10;53.34
37852;BME280;23691;52.486;4.650;2022-09-02T06:37:43;101698.78;;;18.16;53.09
37852;BME280;23691;52.486;4.650;2022-09-02T06:40:09;101699.03;;;18.21;52.91
37852;BME280;23691;52.486;4.650;2022-09-02T06:42:36;101700.72;;;18.22;52.91
37852;BME280;23691;52.486;4.650;2022-09-02T06:45:01;101702.47;;;18.30;52.68
37852;BME280;23691;52.486;4.650;2022-09-02T06:47:28;101705.25;;;18.36;52.58
37852;BME280;23691;52.486;4.650;2022-09-02T06:49:53;101702.19;;;18.46;52.50
37852;BME280;23691;52.486;4.650;2022-09-02T06:52:18;101704.09;;;18.52;52.18
37852;BME280;23691;52.486;4.650;2022-09-02T06:54:44;101702.94;;;18.61;52.01
37852;BME280;23691;52.486;4.650;2022-09-02T06:57:09;101695.88;;;18.67;51.88
37852;BME280;23691;52.486;4.650;2022-09-02T06:59:35;101699.66;;;18.73;51.58
37852;BME280;23691;52.486;4.650;2022-09-02T07:02:00;101694.16;;;18.81;51.60
37852;BME280;23691;52.486;4.650;2022-09-02T07:04:26;101699.59;;;18.87;51.35
37852;BME280;23691;52.486;4.650;2022-09-02T07:07:11;101696.94;;;18.94;51.15
37852;BME280;23691;52.486;4.650;2022-09-02T07:09:37;101703.06;;;19.03;50.93
37852;BME280;23691;52.486;4.650;2022-09-02T07:12:04;101699.09;;;19.05;50.77
37852;BME280;23691;52.486;4.650;2022-09-02T07:14:29;101701.63;;;19.14;50.55
37852;BME280;23691;52.486;4.650;2022-09-02T07:16:55;101685.00;;;19.23;50.11
37852;BME280;23691;52.486;4.650;2022-09-02T07:19:21;101696.91;;;19.29;50.04
37852;BME280;23691;52.486;4.650;2022-09-02T07:21:48;101696.06;;;19.28;49.98
37852;BME280;23691;52.486;4.650;2022-09-02T07:24:14;101693.19;;;19.30;49.88
37852;BME280;23691;52.486;4.650;2022-09-02T07:26:39;101684.03;;;19.38;49.55
37852;BME280;23691;52.486;4.650;2022-09-02T07:29:06;101695.13;;;19.49;49.17
37852;BME280;23691;52.486;4.650;2022-09-02T07:31:38;101688.50;;;19.65;49.04
37852;BME280;23691;52.486;4.650;2022-09-02T07:34:04;101690.03;;;19.81;48.70
37852;BME280;23691;52.486;4.650;2022-09-02T07:36:32;101690.03;;;19.88;48.36
37852;BME280;23691;52.486;4.650;2022-09-02T07:38:59;101690.09;;;20.01;48.28
37852;BME280;23691;52.486;4.650;2022-09-02T07:41:25;101680.28;;;20.13;47.94
37852;BME280;23691;52.486;4.650;2022-09-02T07:43:50;101678.59;;;20.19;47.71
37852;BME280;23691;52.486;4.650;2022-09-02T07:46:16;101675.69;;;20.34;47.59
37852;BME280;23691;52.486;4.650;2022-09-02T07:48:41;101672.75;;;20.42;47.11
37852;BME280;23691;52.486;4.650;2022-09-02T07:51:08;101670.66;;;20.51;47.18
37852;BME280;23691;52.486;4.650;2022-09-02T07:53:34;101665.03;;;20.66;47.04
37852;BME280;23691;52.486;4.650;2022-09-02T07:56:01;101680.69;;;20.77;46.83
37852;BME280;23691;52.486;4.650;2022-09-02T07:58:27;101660.63;;;20.85;46.83
37852;BME280;23691;52.486;4.650;2022-09-02T08:00:54;101669.16;;;20.88;46.55
37852;BME280;23691;52.486;4.650;2022-09-02T08:03:26;101658.50;;;20.87;45.88
37852;BME280;23691;52.486;4.650;2022-09-02T08:05:52;101664.97;;;20.92;46.23
37852;BME280;23691;52.486;4.650;2022-09-02T08:08:19;101658.69;;;20.98;46.26
37852;BME280;23691;52.486;4.650;2022-09-02T08:10:46;101663.47;;;21.10;46.22
37852;BME280;23691;52.486;4.650;2022-09-02T08:13:13;101661.94;;;21.20;46.30
37852;BME280;23691;52.486;4.650;2022-09-02T08:15:38;101665.09;;;21.24;46.18
37852;BME280;23691;52.486;4.650;2022-09-02T08:18:05;101660.47;;;21.25;45.99
37852;BME280;23691;52.486;4.650;2022-09-02T08:20:31;101654.22;;;21.24;46.00
37852;BME280;23691;52.486;4.650;2022-09-02T08:22:56;101662.75;;;21.28;45.89
37852;BME280;23691;52.486;4.650;2022-09-02T08:25:22;101661.69;;;21.35;45.80
37852;BME280;23691;52.486;4.650;2022-09-02T08:27:48;101671.13;;;21.39;45.88
37852;BME280;23691;52.486;4.650;2022-09-02T08:30:13;101659.59;;;21.37;45.79
37852;BME280;23691;52.486;4.650;2022-09-02T08:32:39;101658.53;;;21.45;45.38
37852;BME280;23691;52.486;4.650;2022-09-02T08:35:07;101647.38;;;21.53;45.68
37852;BME280;23691;52.486;4.650;2022-09-02T08:37:33;101654.88;;;21.64;45.41
37852;BME280;23691;52.486;4.650;2022-09-02T08:39:59;101654.19;;;21.76;45.56
37852;BME280;23691;52.486;4.650;2022-09-02T08:42:40;101653.25;;;21.89;45.44
37852;BME280;23691;52.486;4.650;2022-09-02T08:48:22;101642.38;;;22.14;45.00
37852;BME280;23691;52.486;4.650;2022-09-02T08:50:51;101640.88;;;22.18;45.05
37852;BME280;23691;52.486;4.650;2022-09-02T08:53:28;101641.44;;;22.26;44.86
37852;BME280;23691;52.486;4.650;2022-09-02T08:55:57;101638.50;;;22.28;45.13
37852;BME280;23691;52.486;4.650;2022-09-02T08:58:26;101637.44;;;22.29;44.71
37852;BME280;23691;52.486;4.650;2022-09-02T09:01:42;101642.38;;;22.39;44.65
37852;BME280;23691;52.486;4.650;2022-09-02T09:17:19;101637.19;;;22.99;43.62
37852;BME280;23691;52.486;4.650;2022-09-02T09:19:50;101627.47;;;23.03;43.59
37852;BME280;23691;52.486;4.650;2022-09-02T09:22:21;101628.69;;;23.07;44.02
37852;BME280;23691;52.486;4.650;2022-09-02T09:24:49;101630.56;;;23.25;43.41
37852;BME280;23691;52.486;4.650;2022-09-02T09:27:20;101622.63;;;23.35;43.69
37852;BME280;23691;52.486;4.650;2022-09-02T09:29:46;101627.06;;;23.36;43.33
37852;BME280;23691;52.486;4.650;2022-09-02T09:32:40;101625.28;;;23.42;43.21
37852;BME280;23691;52.486;4.650;2022-09-02T09:35:08;101629.50;;;23.56;42.82
37852;BME280;23691;52.486;4.650;2022-09-02T09:42:45;101620.81;;;23.90;42.50
37852;BME280;23691;52.486;4.650;2022-09-02T09:45:19;101610.88;;;23.95;42.85
37852;BME280;23691;52.486;4.650;2022-09-02T09:50:34;101613.34;;;23.97;42.72
37852;BME280;23691;52.486;4.650;2022-09-02T09:53:32;101609.00;;;24.08;42.08
37852;BME280;23691;52.486;4.650;2022-09-02T10:01:35;101614.00;;;24.23;41.78
37852;BME280;23691;52.486;4.650;2022-09-02T10:06:58;101599.97;;;24.31;41.95
37852;BME280;23691;52.486;4.650;2022-09-02T10:09:31;101606.25;;;24.31;42.08
37852;BME280;23691;52.486;4.650;2022-09-02T10:12:13;101599.38;;;24.40;41.58
37852;BME280;23691;52.486;4.650;2022-09-02T10:14:46;101598.09;;;24.55;41.98
37852;BME280;23691;52.486;4.650;2022-09-02T10:20:59;101599.47;;;24.81;40.95
37852;BME280;23691;52.486;4.650;2022-09-02T10:31:08;101597.06;;;24.96;41.07
37852;BME280;23691;52.486;4.650;2022-09-02T10:34:16;101592.72;;;25.12;40.80
37852;BME280;23691;52.486;4.650;2022-09-02T10:42:15;101584.13;;;25.49;40.40
37852;BME280;23691;52.486;4.650;2022-09-02T10:47:48;101595.75;;;25.56;40.18
37852;BME280;23691;52.486;4.650;2022-09-02T10:53:20;101587.47;;;25.68;39.78
37852;BME280;23691;52.486;4.650;2022-09-02T10:55:57;101578.22;;;25.86;39.50
37852;BME280;23691;52.486;4.650;2022-09-02T11:00:58;101575.97;;;26.00;39.58
37852;BME280;23691;52.486;4.650;2022-09-02T11:04:11;101570.47;;;26.17;39.43
37852;BME280;23691;52.486;4.650;2022-09-02T11:06:41;101567.31;;;26.25;39.38
37852;BME280;23691;52.486;4.650;2022-09-02T11:09:18;101558.84;;;26.09;39.39
37852;BME280;23691;52.486;4.650;2022-09-02T11:12:14;101559.59;;;26.05;39.34
37852;BME280;23691;52.486;4.650;2022-09-02T11:25:24;101551.34;;;26.39;38.74
37852;BME280;23691;52.486;4.650;2022-09-02T11:30:44;101545.09;;;26.65;38.64
37852;BME280;23691;52.486;4.650;2022-09-02T11:33:27;101544.41;;;26.75;38.51
37852;BME280;23691;52.486;4.650;2022-09-02T11:35:53;101547.09;;;26.70;38.25
37852;BME280;23691;52.486;4.650;2022-09-02T11:43:54;101534.56;;;27.01;38.03
37852;BME280;23691;52.486;4.650;2022-09-02T11:46:41;101534.34;;;27.08;37.92
37852;BME280;23691;52.486;4.650;2022-09-02T11:49:21;101537.22;;;27.18;37.89
37852;BME280;23691;52.486;4.650;2022-09-02T11:51:55;101534.41;;;27.13;38.28
37852;BME280;23691;52.486;4.650;2022-09-02T11:54:25;101524.44;;;27.07;38.28
37852;BME280;23691;52.486;4.650;2022-09-02T11:57:03;101522.97;;;27.21;37.98
37852;BME280;23691;52.486;4.650;2022-09-02T12:02:36;101511.75;;;27.55;37.06
37852;BME280;23691;52.486;4.650;2022-09-02T12:07:58;101512.81;;;27.86;36.46
37852;BME280;23691;52.486;4.650;2022-09-02T12:13:05;101504.44;;;28.08;36.43
37852;BME280;23691;52.486;4.650;2022-09-02T12:15:32;101504.81;;;28.22;36.17
37852;BME280;23691;52.486;4.650;2022-09-02T12:18:13;101504.28;;;28.30;36.15
37852;BME280;23691;52.486;4.650;2022-09-02T12:23:10;101494.69;;;28.38;36.02
37852;BME280;23691;52.486;4.650;2022-09-02T12:26:03;101492.31;;;28.52;35.91
37852;BME280;23691;52.486;4.650;2022-09-02T12:28:30;101492.34;;;28.62;36.05
37852;BME280;23691;52.486;4.650;2022-09-02T12:33:42;101486.84;;;28.62;35.73
37852;BME280;23691;52.486;4.650;2022-09-02T12:41:49;101471.78;;;28.85;35.58
37852;BME280;23691;52.486;4.650;2022-09-02T12:44:26;101484.50;;;29.06;35.26
37852;BME280;23691;52.486;4.650;2022-09-02T12:47:07;101476.28;;;29.22;34.91
37852;BME280;23691;52.486;4.650;2022-09-02T12:49:45;101471.84;;;29.26;34.94
37852;BME280;23691;52.486;4.650;2022-09-02T12:55:12;101461.69;;;29.31;34.43
37852;BME280;23691;52.486;4.650;2022-09-02T12:57:42;101464.97;;;29.33;34.19
37852;BME280;23691;52.486;4.650;2022-09-02T13:00:23;101470.19;;;29.45;34.35
37852;BME280;23691;52.486;4.650;2022-09-02T13:05:24;101451.44;;;29.63;33.67
37852;BME280;23691;52.486;4.650;2022-09-02T13:10:48;101447.84;;;29.93;33.69
37852;BME280;23691;52.486;4.650;2022-09-02T13:16:09;101448.84;;;30.12;33.86
37852;BME280;23691;52.486;4.650;2022-09-02T13:22:08;101444.94;;;30.34;33.15
37852;BME280;23691;52.486;4.650;2022-09-02T13:27:50;101447.09;;;30.47;32.64
37852;BME280;23691;52.486;4.650;2022-09-02T13:33:24;101439.38;;;30.44;32.89
37852;BME280;23691;52.486;4.650;2022-09-02T13:35:55;101436.06;;;30.42;32.77
37852;BME280;23691;52.486;4.650;2022-09-02T13:38:25;101436.91;;;30.43;32.25
37852;BME280;23691;52.486;4.650;2022-09-02T13:40:51;101429.50;;;30.33;31.96
37852;BME280;23691;52.486;4.650;2022-09-02T13:43:20;101425.09;;;30.22;32.11
37852;BME280;23691;52.486;4.650;2022-09-02T13:45:50;101418.50;;;30.28;32.28
37852;BME280;23691;52.486;4.650;2022-09-02T13:48:25;101415.19;;;30.26;32.49
37852;BME280;23691;52.486;4.650;2022-09-02T13:50:53;101412.13;;;30.32;32.28
37852;BME280;23691;52.486;4.650;2022-09-02T13:53:35;101403.81;;;30.37;32.07
37852;BME280;23691;52.486;4.650;2022-09-02T13:56:05;101402.38;;;30.45;31.77
37852;BME280;23691;52.486;4.650;2022-09-02T13:58:35;101395.47;;;30.48;32.15
37852;BME280;23691;52.486;4.650;2022-09-02T14:03:48;101404.53;;;30.53;31.70
37852;BME280;23691;52.486;4.650;2022-09-02T14:06:19;101401.53;;;30.50;31.70
37852;BME280;23691;52.486;4.650;2022-09-02T14:08:49;101400.69;;;30.49;31.30
37852;BME280;23691;52.486;4.650;2022-09-02T14:11:16;101398.78;;;30.50;31.28
37852;BME280;23691;52.486;4.650;2022-09-02T14:13:47;101389.66;;;30.49;31.32
37852;BME280;23691;52.486;4.650;2022-09-02T14:21:52;101375.63;;;30.41;30.49
37852;BME280;23691;52.486;4.650;2022-09-02T14:24:22;101381.75;;;30.37;30.73
37852;BME280;23691;52.486;4.650;2022-09-02T14:26:51;101374.84;;;30.30;30.64
37852;BME280;23691;52.486;4.650;2022-09-02T14:29:19;101373.22;;;30.29;30.56
37852;BME280;23691;52.486;4.650;2022-09-02T14:31:46;101381.50;;;30.24;30.65
37852;BME280;23691;52.486;4.650;2022-09-02T14:34:38;101379.31;;;30.21;30.03
37852;BME280;23691;52.486;4.650;2022-09-02T14:37:18;101377.63;;;30.25;30.34
37852;BME280;23691;52.486;4.650;2022-09-02T14:40:13;101380.66;;;30.33;30.00
37852;BME280;23691;52.486;4.650;2022-09-02T14:45:12;101367.16;;;30.27;29.95
37852;BME280;23691;52.486;4.650;2022-09-02T14:47:38;101363.00;;;30.24;30.20
37852;BME280;23691;52.486;4.650;2022-09-02T14:50:09;101364.19;;;30.13;29.40
37852;BME280;23691;52.486;4.650;2022-09-02T14:52:36;101353.72;;;30.05;29.84
37852;BME280;23691;52.486;4.650;2022-09-02T14:55:03;101359.00;;;29.96;29.74
37852;BME280;23691;52.486;4.650;2022-09-02T14:59:59;101345.56;;;29.79;30.24
37852;BME280;23691;52.486;4.650;2022-09-02T15:04:54;101342.28;;;29.72;29.80
37852;BME280;23691;52.486;4.650;2022-09-02T15:07:20;101346.97;;;29.71;30.23
37852;BME280;23691;52.486;4.650;2022-09-02T15:09:46;101343.09;;;29.72;30.23
37852;BME280;23691;52.486;4.650;2022-09-02T15:12:16;101338.38;;;29.78;30.21
37852;BME280;23691;52.486;4.650;2022-09-02T15:14:43;101344.19;;;29.77;30.20
37852;BME280;23691;52.486;4.650;2022-09-02T15:17:11;101341.97;;;29.63;30.13
37852;BME280;23691;52.486;4.650;2022-09-02T15:19:37;101344.78;;;29.48;30.16